Time;durP1;ratioP1;P1;durP2;ratioP2;P2;SDS_P1;SDS_P2;PMS_P1;PMS_P2;Temp;Humidity;BMP_temperature;BMP_pressure;BME280_temperature;BME280_humidity;BME280_pressure;Samples;Min_cycle;Max_cycle;Signal;HPM_P1;HPM_P2
2021/03/02 00:01:08;;;;;;;14.45;8.27;;;4.50;61.90;;;;;;5015776;28;20113;-73
2021/03/02 00:03:36;;;;;;;15.02;8.32;;;4.50;62.10;;;;;;5015689;28;20032;-73
2021/03/02 00:06:03;;;;;;;14.20;8.15;;;4.50;62.20;;;;;;5014585;28;20080;-73
2021/03/02 00:08:28;;;;;;;19.00;8.80;;;4.50;62.40;;;;;;5015549;28;20026;-73
2021/03/02 00:10:55;;;;;;;12.70;8.40;;;4.50;62.60;;;;;;5015759;28;20112;-73
2021/03/02 00:13:22;;;;;;;14.93;7.57;;;4.50;62.60;;;;;;5015557;28;20040;-74
2021/03/02 00:15:48;;;;;;;14.45;8.00;;;4.40;62.40;;;;;;5015203;28;20486;-74
2021/03/02 00:18:20;;;;;;;14.30;8.68;;;4.40;62.60;;;;;;5015296;28;20059;-73
2021/03/02 00:20:57;;;;;;;15.57;8.70;;;4.40;62.60;;;;;;5015190;28;20025;-74
2021/03/02 00:23:28;;;;;;;13.55;7.72;;;4.30;62.90;;;;;;5015272;28;20024;-74
2021/03/02 00:25:58;;;;;;;13.57;8.43;;;4.30;63.10;;;;;;5015136;28;20061;-74
2021/03/02 00:28:27;;;;;;;13.98;8.60;;;4.20;63.50;;;;;;5015068;28;20091;-73
2021/03/02 00:30:54;;;;;;;13.68;8.00;;;4.10;63.70;;;;;;5014975;28;20076;-73
2021/03/02 00:33:21;;;;;;;16.38;9.05;;;4.10;63.90;;;;;;5014880;28;20055;-73
2021/03/02 00:35:47;;;;;;;14.25;8.20;;;4.10;64.20;;;;;;5014954;28;20034;-73
2021/03/02 00:38:13;;;;;;;13.23;8.20;;;4.10;64.30;;;;;;5014944;28;20040;-73
2021/03/02 00:40:39;;;;;;;14.90;8.80;;;4.00;64.30;;;;;;5014824;28;20133;-73
2021/03/02 00:43:05;;;;;;;13.43;8.45;;;4.00;64.30;;;;;;5014742;28;20026;-73
2021/03/02 00:45:30;;;;;;;13.77;8.43;;;4.00;64.50;;;;;;5014750;28;20068;-73
2021/03/02 00:47:56;;;;;;;16.45;8.18;;;4.00;64.60;;;;;;5014858;28;20379;-72
2021/03/02 00:50:23;;;;;;;16.50;9.02;;;4.00;64.60;;;;;;5014635;28;20106;-72
2021/03/02 00:52:49;;;;;;;18.35;9.60;;;4.00;64.60;;;;;;5014765;28;20029;-72
2021/03/02 00:55:15;;;;;;;17.50;9.50;;;4.00;64.70;;;;;;5014493;28;20034;-72
2021/03/02 00:57:41;;;;;;;19.48;10.32;;;3.90;65.60;;;;;;5014430;28;20136;-72
2021/03/02 01:00:07;;;;;;;21.98;10.85;;;3.90;64.70;;;;;;5014481;28;20530;-72
2021/03/02 01:02:33;;;;;;;23.40;10.65;;;3.90;65.00;;;;;;5014059;28;20073;-72
2021/03/02 01:04:59;;;;;;;17.65;9.85;;;3.90;65.50;;;;;;5015882;28;20083;-72
2021/03/02 01:07:24;;;;;;;20.98;10.32;;;3.80;65.50;;;;;;5025311;28;20065;-72
2021/03/02 01:09:50;;;;;;;19.25;10.90;;;3.80;65.50;;;;;;5032832;28;20084;-73
2021/03/02 01:12:15;;;;;;;19.92;10.38;;;3.80;65.70;;;;;;5030878;28;20140;-72
2021/03/02 01:14:41;;;;;;;21.63;9.88;;;3.80;65.80;;;;;;5015171;28;20069;-72
2021/03/02 01:17:07;;;;;;;20.63;10.40;;;3.80;66.00;;;;;;5014868;28;20037;-73
2021/03/02 01:19:32;;;;;;;20.08;10.73;;;3.80;66.00;;;;;;5015269;28;20539;-72
2021/03/02 01:21:58;;;;;;;18.08;9.65;;;3.70;66.30;;;;;;5014584;28;20021;-72
2021/03/02 01:24:24;;;;;;;21.17;10.98;;;3.70;66.70;;;;;;5014440;28;20030;-72
2021/03/02 01:26:50;;;;;;;19.85;10.60;;;3.70;67.10;;;;;;5014303;28;20088;-72
2021/03/02 01:29:15;;;;;;;19.30;10.00;;;3.70;67.50;;;;;;5014267;28;20037;-72
2021/03/02 01:31:41;;;;;;;23.52;11.18;;;3.70;67.70;;;;;;5014141;28;20025;-72
2021/03/02 01:34:06;;;;;;;19.42;10.98;;;3.70;67.80;;;;;;5014153;28;20129;-73
2021/03/02 01:36:32;;;;;;;20.23;11.45;;;3.60;68.10;;;;;;5014009;28;20085;-72
2021/03/02 01:38:58;;;;;;;20.92;10.50;;;3.60;68.50;;;;;;5014038;28;20029;-72
2021/03/02 01:41:23;;;;;;;21.35;11.43;;;3.60;68.70;;;;;;5014019;28;20487;-73
2021/03/02 01:43:49;;;;;;;26.58;12.38;;;3.60;68.70;;;;;;5013881;28;20471;-72
2021/03/02 01:46:14;;;;;;;17.50;9.60;;;3.60;69.10;;;;;;5013746;28;20041;-72
2021/03/02 01:48:41;;;;;;;18.83;10.10;;;3.60;68.80;;;;;;5013798;28;20026;-72
2021/03/02 01:51:08;;;;;;;18.13;9.90;;;3.60;67.90;;;;;;5013946;28;20553;-72
2021/03/02 01:53:34;;;;;;;15.45;8.52;;;3.60;67.00;;;;;;5013679;28;20069;-72
2021/03/02 01:56:00;;;;;;;22.15;11.10;;;3.60;66.20;;;;;;5013495;28;20390;-72
2021/03/02 01:58:27;;;;;;;25.05;13.18;;;3.50;65.90;;;;;;5013671;28;20037;-72
2021/03/02 02:01:13;;;;;;;28.85;14.15;;;3.60;66.00;;;;;;5013643;28;20032;-72
2021/03/02 02:03:58;;;;;;;26.35;13.70;;;3.50;66.70;;;;;;5013319;28;20034;-73
2021/03/02 02:06:48;;;;;;;25.77;13.15;;;3.50;67.00;;;;;;5013371;28;20356;-73
2021/03/02 02:09:22;;;;;;;22.05;12.88;;;3.50;67.00;;;;;;5013444;28;20387;-72
2021/03/02 02:12:12;;;;;;;23.60;11.93;;;3.50;67.10;;;;;;5013434;28;20033;-72
2021/03/02 02:14:50;;;;;;;21.08;11.18;;;3.50;66.70;;;;;;5013144;28;20026;-73
2021/03/02 02:17:22;;;;;;;19.90;11.50;;;3.40;66.10;;;;;;5013262;28;20029;-72
2021/03/02 02:19:52;;;;;;;26.00;14.10;;;3.40;66.10;;;;;;5013198;28;20026;-72
2021/03/02 02:22:20;;;;;;;18.50;10.50;;;3.40;66.30;;;;;;5013288;28;20041;-72
2021/03/02 02:25:11;;;;;;;20.40;11.35;;;3.40;66.20;;;;;;5013207;28;20029;-73
2021/03/02 02:27:38;;;;;;;20.05;10.85;;;3.40;66.00;;;;;;5012898;28;20185;-73
2021/03/02 02:30:05;;;;;;;20.98;10.30;;;3.30;66.40;;;;;;5013171;28;20030;-72
2021/03/02 02:32:32;;;;;;;21.27;10.68;;;3.30;66.70;;;;;;5011632;28;20144;-72
2021/03/02 02:34:58;;;;;;;15.98;9.80;;;3.20;67.10;;;;;;5013044;28;20411;-72
2021/03/02 02:37:26;;;;;;;18.00;9.95;;;3.30;67.40;;;;;;5012918;28;20028;-72
2021/03/02 02:39:53;;;;;;;18.63;10.13;;;3.30;67.40;;;;;;5012993;28;20022;-72
2021/03/02 02:42:19;;;;;;;18.40;10.45;;;3.30;67.50;;;;;;5012895;28;20032;-72
2021/03/02 02:44:46;;;;;;;17.73;10.20;;;3.30;67.40;;;;;;5011594;28;20045;-72
2021/03/02 02:47:12;;;;;;;18.00;10.50;;;3.30;67.40;;;;;;5012809;28;20454;-73
2021/03/02 02:49:38;;;;;;;18.17;10.52;;;3.30;67.80;;;;;;5012813;28;20053;-72
2021/03/02 02:52:05;;;;;;;17.60;9.88;;;3.30;68.00;;;;;;5012811;28;20084;-72
2021/03/02 02:54:31;;;;;;;16.58;9.30;;;3.30;67.70;;;;;;5012724;28;20018;-73
2021/03/02 02:56:57;;;;;;;19.95;11.23;;;3.30;67.30;;;;;;5012659;28;20134;-72
2021/03/02 02:59:28;;;;;;;18.17;10.23;;;3.30;67.00;;;;;;5012766;28;20125;-73
2021/03/02 03:02:01;;;;;;;18.83;11.18;;;3.30;66.70;;;;;;5012779;28;20018;-73
2021/03/02 03:04:58;;;;;;;17.85;10.50;;;3.30;66.70;;;;;;5012665;28;20482;-72
2021/03/02 03:07:32;;;;;;;17.48;9.80;;;3.20;67.00;;;;;;5012067;28;20141;-72
2021/03/02 03:10:02;;;;;;;20.00;9.73;;;3.20;66.90;;;;;;5012613;28;20034;-73
2021/03/02 03:12:30;;;;;;;15.75;9.02;;;3.20;66.50;;;;;;5012590;28;20032;-72
2021/03/02 03:15:03;;;;;;;17.60;9.57;;;3.20;66.20;;;;;;5044356;28;20026;-72
2021/03/02 03:17:32;;;;;;;20.70;11.68;;;3.20;66.50;;;;;;5012451;28;20075;-72
2021/03/02 03:19:59;;;;;;;21.27;12.05;;;3.20;67.00;;;;;;5012428;28;20413;-72
2021/03/02 03:22:26;;;;;;;18.90;10.90;;;3.10;68.00;;;;;;5012471;28;20034;-72
2021/03/02 03:24:52;;;;;;;27.35;12.13;;;3.10;68.70;;;;;;5014713;28;20383;-74
2021/03/02 03:27:18;;;;;;;20.50;12.30;;;3.10;69.30;;;;;;5016373;28;20030;-73
2021/03/02 03:29:45;;;;;;;20.80;12.80;;;3.00;70.70;;;;;;5016369;28;20378;-73
2021/03/02 03:32:13;;;;;;;23.55;12.70;;;3.10;71.80;;;;;;5016310;28;20112;-73
2021/03/02 03:34:41;;;;;;;23.77;11.70;;;3.00;72.10;;;;;;5016289;28;20471;-73
2021/03/02 03:37:07;;;;;;;23.42;13.15;;;3.10;72.20;;;;;;5016117;28;20034;-74
2021/03/02 03:39:33;;;;;;;24.05;12.90;;;3.00;72.90;;;;;;5014881;28;20029;-73
2021/03/02 03:41:59;;;;;;;19.52;12.10;;;2.90;73.90;;;;;;5014997;28;20560;-74
2021/03/02 03:44:24;;;;;;;23.67;13.00;;;3.00;74.20;;;;;;5015981;28;20022;-74
2021/03/02 03:46:50;;;;;;;22.45;12.30;;;3.00;74.10;;;;;;5015978;28;20056;-74
2021/03/02 03:49:15;;;;;;;22.67;13.10;;;3.00;74.00;;;;;;5016011;28;20033;-74
2021/03/02 03:51:42;;;;;;;22.77;13.30;;;3.00;74.00;;;;;;5015902;28;20030;-73
2021/03/02 03:54:10;;;;;;;20.58;11.77;;;3.00;73.80;;;;;;5015940;28;20532;-73
2021/03/02 03:56:36;;;;;;;22.92;13.18;;;2.90;73.00;;;;;;5015675;28;20050;-73
2021/03/02 03:59:04;;;;;;;25.08;12.68;;;2.90;73.50;;;;;;5015882;28;20437;-73
2021/03/02 04:01:31;;;;;;;23.95;13.13;;;2.80;74.50;;;;;;5015788;28;20470;-73
2021/03/02 04:03:57;;;;;;;28.15;12.93;;;2.80;75.40;;;;;;5015903;28;20034;-73
2021/03/02 04:06:23;;;;;;;29.17;12.85;;;2.80;75.90;;;;;;5015415;28;20514;-73
2021/03/02 04:08:49;;;;;;;24.98;13.63;;;2.80;76.80;;;;;;5015769;28;20026;-73
2021/03/02 04:11:15;;;;;;;23.00;12.18;;;2.80;75.80;;;;;;5015775;28;20034;-73
2021/03/02 04:13:40;;;;;;;21.75;11.98;;;2.90;75.80;;;;;;5015800;28;20133;-73
2021/03/02 04:16:06;;;;;;;28.23;12.60;;;2.90;75.80;;;;;;5015734;28;20418;-73
2021/03/02 04:18:32;;;;;;;23.13;12.48;;;2.80;75.50;;;;;;5014228;28;20033;-73
2021/03/02 04:20:59;;;;;;;22.63;12.60;;;2.90;75.30;;;;;;5015492;28;20406;-73
2021/03/02 04:23:25;;;;;;;23.25;12.48;;;2.90;75.00;;;;;;5015381;28;20096;-73
2021/03/02 04:25:50;;;;;;;23.35;13.07;;;2.90;74.90;;;;;;5014090;28;20418;-73
2021/03/02 04:28:16;;;;;;;24.17;11.95;;;2.80;75.20;;;;;;5015382;28;20533;-73
2021/03/02 04:30:42;;;;;;;23.75;11.85;;;2.70;75.20;;;;;;5015195;28;20108;-73
2021/03/02 04:33:07;;;;;;;22.45;12.55;;;2.70;75.00;;;;;;5015060;28;20442;-73
2021/03/02 04:35:34;;;;;;;22.88;12.35;;;2.70;75.20;;;;;;5014213;28;20026;-73
2021/03/02 04:38:00;;;;;;;29.15;14.25;;;2.60;75.40;;;;;;5016755;28;20034;-73
2021/03/02 04:40:26;;;;;;;27.25;13.93;;;2.60;76.00;;;;;;5021239;28;20018;-73
2021/03/02 04:42:52;;;;;;;26.02;13.38;;;2.60;76.20;;;;;;5015635;28;20068;-73
2021/03/02 04:45:17;;;;;;;27.92;13.73;;;2.50;76.50;;;;;;5031587;28;20028;-73
2021/03/02 04:47:45;;;;;;;31.60;13.63;;;2.40;76.90;;;;;;5035715;28;20030;-74
2021/03/02 04:50:15;;;;;;;26.45;13.98;;;2.40;77.30;;;;;;5018053;28;20053;-72
2021/03/02 04:52:41;;;;;;;29.02;13.77;;;2.40;77.70;;;;;;5015351;28;20021;-72
2021/03/02 04:55:08;;;;;;;24.58;12.68;;;2.40;78.10;;;;;;5015319;28;20436;-72
2021/03/02 04:57:33;;;;;;;26.15;14.20;;;2.40;78.00;;;;;;5014989;28;20077;-72
2021/03/02 04:59:59;;;;;;;29.25;13.60;;;2.40;78.00;;;;;;5015170;28;20080;-72
2021/03/02 05:02:24;;;;;;;29.30;14.45;;;2.40;78.20;;;;;;5015188;28;20478;-73
2021/03/02 05:04:50;;;;;;;26.45;13.05;;;2.50;78.20;;;;;;5015114;28;20501;-72
2021/03/02 05:07:16;;;;;;;26.90;14.35;;;2.50;77.90;;;;;;5014860;28;20096;-73
2021/03/02 05:09:41;;;;;;;29.40;13.63;;;2.50;77.70;;;;;;5014989;28;20382;-72
2021/03/02 05:12:08;;;;;;;27.52;14.23;;;2.50;77.90;;;;;;5014970;28;20061;-72
2021/03/02 05:14:33;;;;;;;33.42;14.68;;;2.50;77.80;;;;;;5014611;28;20500;-72
2021/03/02 05:16:59;;;;;;;27.02;15.05;;;2.50;77.60;;;;;;5014807;28;20105;-73
2021/03/02 05:19:25;;;;;;;29.42;14.90;;;2.60;77.50;;;;;;5014760;28;20416;-73
2021/03/02 05:21:50;;;;;;;26.67;14.65;;;2.50;77.60;;;;;;5014571;28;20109;-74
2021/03/02 05:24:16;;;;;;;28.33;14.18;;;2.50;77.60;;;;;;5014800;28;20034;-72
2021/03/02 05:26:41;;;;;;;27.83;14.38;;;2.50;77.60;;;;;;5013242;28;20038;-73
2021/03/02 05:29:07;;;;;;;29.58;13.82;;;2.50;77.70;;;;;;5014632;28;20032;-74
2021/03/02 05:31:32;;;;;;;27.35;14.40;;;2.50;77.70;;;;;;5014392;28;20355;-73
2021/03/02 05:33:58;;;;;;;29.10;14.10;;;2.60;77.60;;;;;;5014422;28;20497;-73
2021/03/02 05:36:24;;;;;;;30.17;14.95;;;2.50;77.50;;;;;;5014525;28;20034;-75
2021/03/02 05:38:49;;;;;;;32.40;15.52;;;2.50;77.70;;;;;;5014417;28;20054;-74
2021/03/02 05:41:15;;;;;;;27.63;15.70;;;2.50;78.20;;;;;;5014417;28;20030;-72
2021/03/02 05:43:42;;;;;;;25.17;14.77;;;2.40;78.30;;;;;;5014375;28;20049;-72
2021/03/02 05:46:09;;;;;;;28.10;16.15;;;2.40;77.60;;;;;;5014206;28;20038;-72
2021/03/02 05:48:36;;;;;;;27.63;15.40;;;2.40;77.20;;;;;;5014224;28;20018;-73
2021/03/02 05:51:02;;;;;;;30.52;16.70;;;2.50;76.90;;;;;;5014170;28;20029;-73
2021/03/02 05:53:27;;;;;;;18.92;11.00;;;2.50;76.40;;;;;;5014146;28;20030;-73
2021/03/02 05:55:53;;;;;;;27.80;16.75;;;3.00;85.80;;;;;;5014025;28;20022;-73
2021/03/02 05:58:19;;;;;;;33.28;16.73;;;3.80;90.50;;;;;;5014288;28;20478;-74
2021/03/02 06:00:45;;;;;;;26.30;14.25;;;4.30;82.00;;;;;;5014008;28;20018;-74
2021/03/02 06:03:11;;;;;;;28.85;15.25;;;4.60;78.40;;;;;;5014095;28;20625;-73
2021/03/02 06:05:37;;;;;;;26.08;12.90;;;5.10;75.10;;;;;;5012587;28;20034;-74
2021/03/02 06:08:03;;;;;;;25.67;13.57;;;5.30;73.80;;;;;;5014141;28;20022;-73
2021/03/02 06:10:32;;;;;;;30.33;14.93;;;5.40;71.40;;;;;;5012687;28;20037;-74
2021/03/02 06:12:59;;;;;;;25.92;15.52;;;5.40;68.40;;;;;;5013867;28;20511;-73
2021/03/02 06:15:26;;;;;;;27.67;16.48;;;5.40;68.40;;;;;;5013652;28;20053;-73
2021/03/02 06:18:14;;;;;;;34.03;17.88;;;4.80;65.40;;;;;;5013505;28;20076;-74
2021/03/02 06:20:42;;;;;;;30.13;17.48;;;4.30;66.10;;;;;;5013378;28;20026;-73
2021/03/02 06:23:28;;;;;;;32.20;17.88;;;4.00;67.60;;;;;;5013346;28;20106;-73
2021/03/02 06:25:55;;;;;;;35.25;16.92;;;3.70;69.40;;;;;;5011814;28;20053;-74
2021/03/02 06:28:41;;;;;;;29.73;16.65;;;3.50;71.00;;;;;;5013074;28;20025;-74
2021/03/02 06:31:27;;;;;;;27.80;14.60;;;3.40;71.90;;;;;;5013329;28;20030;-73
2021/03/02 06:34:02;;;;;;;;;;;3.30;72.70;;;;;;5013570;28;20029;-73
2021/03/02 06:36:27;;;;;;;28.80;15.35;;;3.10;74.00;;;;;;5013091;28;20366;-74
2021/03/02 06:38:53;;;;;;;30.67;15.80;;;3.00;74.80;;;;;;5013315;28;20032;-74
2021/03/02 06:41:22;;;;;;;26.83;16.10;;;2.90;75.60;;;;;;5013341;28;20119;-75
2021/03/02 06:43:47;;;;;;;27.05;15.90;;;2.90;75.60;;;;;;5013175;28;20040;-74
2021/03/02 06:46:13;;;;;;;26.85;16.13;;;3.00;75.90;;;;;;5013613;28;20034;-74
2021/03/02 06:48:56;;;;;;;29.85;16.92;;;3.00;76.10;;;;;;5013510;28;20029;-74
2021/03/02 06:51:30;;;;;;;30.83;16.85;;;3.00;76.60;;;;;;5013118;28;20026;-74
2021/03/02 06:54:07;;;;;;;29.77;16.58;;;3.00;76.70;;;;;;5013341;28;20025;-74
2021/03/02 06:56:34;;;;;;;31.63;16.45;;;3.10;76.80;;;;;;5012997;28;20183;-74
2021/03/02 06:59:14;;;;;;;31.50;16.40;;;3.10;76.40;;;;;;5013072;28;20026;-73
2021/03/02 07:01:42;;;;;;;33.72;16.45;;;3.10;76.20;;;;;;5013456;28;20032;-74
2021/03/02 07:04:19;;;;;;;28.77;15.90;;;3.20;76.10;;;;;;5016346;28;20088;-74
2021/03/02 07:06:54;;;;;;;36.85;16.17;;;3.30;76.00;;;;;;5011874;28;20137;-73
2021/03/02 07:09:20;;;;;;;29.48;17.00;;;3.30;75.80;;;;;;5013113;28;20394;-73
2021/03/02 07:11:47;;;;;;;32.50;17.08;;;3.40;75.60;;;;;;5013028;28;20030;-73
2021/03/02 07:14:14;;;;;;;31.80;16.33;;;3.40;75.40;;;;;;5013268;28;20022;-74
2021/03/02 07:16:42;;;;;;;34.80;16.88;;;3.40;75.00;;;;;;5012899;28;20026;-73
2021/03/02 07:19:14;;;;;;;29.42;16.30;;;3.40;74.90;;;;;;5013734;28;20109;-73
2021/03/02 07:21:40;;;;;;;30.75;16.42;;;3.50;74.70;;;;;;5017736;28;20077;-74
2021/03/02 07:24:12;;;;;;;30.48;16.52;;;3.60;74.50;;;;;;5015111;28;20028;-73
2021/03/02 07:26:43;;;;;;;27.25;16.20;;;3.70;74.40;;;;;;5018114;28;20038;-75
2021/03/02 07:29:09;;;;;;;29.67;15.98;;;3.70;74.20;;;;;;5019003;28;20018;-74
2021/03/02 07:31:37;;;;;;;31.05;16.88;;;3.90;74.00;;;;;;5017800;28;20500;-74
2021/03/02 07:34:06;;;;;;;32.88;17.77;;;4.00;73.80;;;;;;5017341;28;20026;-72
2021/03/02 07:36:49;;;;;;;31.10;18.05;;;4.00;73.70;;;;;;5018409;28;20076;-73
2021/03/02 07:39:20;;;;;;;37.70;21.55;;;4.10;73.40;;;;;;5020779;28;20106;-73
2021/03/02 07:41:47;;;;;;;34.15;20.23;;;4.20;73.20;;;;;;5016358;28;20045;-71
2021/03/02 07:44:13;;;;;;;38.25;19.95;;;4.20;72.90;;;;;;5016846;28;20025;-75
2021/03/02 07:46:41;;;;;;;33.00;18.63;;;4.30;72.80;;;;;;5015868;28;20452;-73
2021/03/02 07:49:32;;;;;;;35.53;20.00;;;4.40;72.50;;;;;;5015662;28;20402;-74
2021/03/02 07:52:00;;;;;;;32.60;19.48;;;4.40;72.30;;;;;;5015142;28;20084;-74
2021/03/02 07:54:26;;;;;;;32.10;18.15;;;4.60;72.40;;;;;;5015157;28;20064;-73
2021/03/02 07:57:21;;;;;;;34.25;18.45;;;4.80;72.10;;;;;;5014556;28;20049;-74
2021/03/02 08:00:07;;;;;;;39.08;19.50;;;5.00;71.50;;;;;;5012484;28;20038;-74
2021/03/02 08:02:32;;;;;;;38.40;18.92;;;5.10;70.90;;;;;;5013314;28;20022;-74
2021/03/02 08:05:27;;;;;;;30.38;17.30;;;5.20;70.50;;;;;;5013801;28;20028;-74
2021/03/02 08:08:23;;;;;;;30.75;15.63;;;5.30;70.40;;;;;;5014947;28;20041;-73
2021/03/02 08:10:53;;;;;;;34.53;16.23;;;5.50;69.50;;;;;;5013730;28;20033;-73
2021/03/02 08:13:39;;;;;;;33.92;17.20;;;5.70;68.80;;;;;;5017790;28;20104;-73
2021/03/02 08:16:07;;;;;;;27.88;15.50;;;5.90;68.20;;;;;;5015383;28;20025;-74
2021/03/02 08:18:43;;;;;;;31.60;16.73;;;6.00;67.60;;;;;;5016449;28;20490;-74
2021/03/02 08:21:21;;;;;;;28.52;16.23;;;6.10;67.30;;;;;;5014977;28;20026;-74
2021/03/02 08:23:59;;;;;;;31.27;16.92;;;6.40;67.00;;;;;;5015673;28;20052;-75
2021/03/02 08:26:33;;;;;;;36.17;18.13;;;6.50;66.60;;;;;;5017262;28;20048;-74
2021/03/02 08:29:16;;;;;;;37.65;17.60;;;6.50;67.00;;;;;;5018050;28;20073;-74
2021/03/02 08:31:47;;;;;;;35.30;18.08;;;6.50;67.00;;;;;;5017377;28;20042;-72
2021/03/02 08:34:15;;;;;;;30.98;17.58;;;6.60;66.30;;;;;;5016402;28;20109;-74
2021/03/02 08:36:41;;;;;;;28.42;16.80;;;6.70;66.20;;;;;;5016120;28;20022;-75
2021/03/02 08:39:09;;;;;;;25.58;15.23;;;7.00;65.80;;;;;;5015483;28;20030;-76
2021/03/02 08:41:44;;;;;;;29.08;16.90;;;7.20;65.40;;;;;;5016890;28;20034;-75
2021/03/02 08:44:23;;;;;;;32.38;17.38;;;7.50;65.30;;;;;;5015047;28;20021;-74
2021/03/02 08:46:51;;;;;;;36.28;17.83;;;7.50;63.30;;;;;;5015715;28;20065;-75
2021/03/02 08:49:18;;;;;;;32.03;18.02;;;7.60;63.40;;;;;;5015255;28;20018;-74
2021/03/02 08:51:44;;;;;;;33.00;17.85;;;7.80;62.90;;;;;;5016318;28;20034;-74
2021/03/02 08:54:10;;;;;;;28.65;17.08;;;7.90;61.80;;;;;;5015996;28;20088;-74
2021/03/02 08:56:35;;;;;;;32.00;17.05;;;8.00;61.20;;;;;;5015376;28;20050;-74
2021/03/02 08:59:01;;;;;;;33.85;15.93;;;8.10;60.70;;;;;;5015373;28;20026;-74
2021/03/02 09:01:30;;;;;;;32.13;16.02;;;8.20;60.30;;;;;;5015343;28;20026;-75
2021/03/02 09:04:32;;;;;;;22.33;13.85;;;8.40;59.80;;;;;;5015142;28;20046;-74
2021/03/02 09:06:57;;;;;;;23.17;14.30;;;8.60;59.60;;;;;;5013866;28;20608;-74
2021/03/02 09:09:26;;;;;;;24.85;14.45;;;8.80;59.70;;;;;;5014879;28;20030;-74
2021/03/02 09:11:57;;;;;;;26.88;12.82;;;9.10;59.30;;;;;;5014797;28;20018;-75
2021/03/02 09:14:33;;;;;;;24.80;12.43;;;9.40;58.40;;;;;;5014792;28;20022;-75
2021/03/02 09:17:00;;;;;;;26.55;13.57;;;9.70;57.80;;;;;;5014592;28;20080;-75
2021/03/02 09:19:30;;;;;;;28.80;13.25;;;10.00;56.80;;;;;;5013356;28;20100;-75
2021/03/02 09:22:15;;;;;;;21.40;13.20;;;10.20;55.80;;;;;;5013190;28;20034;-75
2021/03/02 09:24:42;;;;;;;25.40;13.30;;;10.30;54.40;;;;;;5014698;28;20022;-74
2021/03/02 09:27:19;;;;;;;23.77;12.75;;;10.50;53.20;;;;;;5014497;28;20041;-74
2021/03/02 09:29:46;;;;;;;26.65;12.35;;;10.70;53.30;;;;;;5014604;28;20375;-75
2021/03/02 09:32:16;;;;;;;20.35;11.50;;;10.80;51.80;;;;;;5013338;28;20033;-74
2021/03/02 09:34:44;;;;;;;24.17;12.32;;;11.00;52.00;;;;;;5014140;28;20030;-74
2021/03/02 09:37:12;;;;;;;24.65;12.13;;;11.20;52.30;;;;;;5014437;28;20018;-74
2021/03/02 09:39:39;;;;;;;23.88;11.98;;;11.50;51.50;;;;;;5012990;28;20497;-74
2021/03/02 09:42:20;;;;;;;23.38;12.38;;;11.40;49.90;;;;;;5013083;28;20080;-73
2021/03/02 09:44:52;;;;;;;24.73;11.98;;;11.60;49.40;;;;;;5014544;28;20442;-74
2021/03/02 09:47:32;;;;;;;21.55;11.93;;;11.80;48.90;;;;;;5013068;28;20041;-73
2021/03/02 09:50:09;;;;;;;21.23;11.55;;;12.00;48.90;;;;;;5014169;28;20026;-74
2021/03/02 09:52:37;;;;;;;23.95;11.60;;;12.40;48.70;;;;;;5013821;28;20075;-75
2021/03/02 09:55:20;;;;;;;21.33;11.65;;;12.60;48.10;;;;;;5014038;28;20029;-74
2021/03/02 09:58:14;;;;;;;26.92;11.88;;;12.90;47.40;;;;;;5013901;28;20137;-75
2021/03/02 10:00:46;;;;;;;18.92;10.93;;;13.00;45.70;;;;;;5013916;28;20029;-75
2021/03/02 10:03:14;;;;;;;15.52;10.57;;;12.90;44.80;;;;;;5013756;28;20056;-73
2021/03/02 10:05:56;;;;;;;22.75;12.05;;;13.00;44.50;;;;;;5012757;28;20124;-74
2021/03/02 10:08:21;;;;;;;20.33;10.85;;;13.20;44.10;;;;;;5013986;28;20030;-74
2021/03/02 10:10:48;;;;;;;21.35;11.50;;;13.50;43.50;;;;;;5014451;28;20029;-75
2021/03/02 10:13:30;;;;;;;18.25;10.85;;;13.70;42.70;;;;;;5014237;28;20060;-74
2021/03/02 10:16:20;;;;;;;19.45;10.68;;;14.10;42.50;;;;;;5014036;28;20054;-74
2021/03/02 10:19:05;;;;;;;18.85;9.95;;;14.30;41.30;;;;;;5013543;28;20018;-74
2021/03/02 10:21:46;;;;;;;15.80;9.75;;;14.50;40.80;;;;;;5045366;28;20032;-73
2021/03/02 10:24:30;;;;;;;16.38;8.90;;;14.70;39.60;;;;;;5045345;28;20037;-74
2021/03/02 10:26:57;;;;;;;14.82;9.40;;;14.90;38.00;;;;;;5045354;28;20107;-74
2021/03/02 10:29:23;;;;;;;17.63;9.23;;;14.90;36.90;;;;;;5045237;28;20032;-74
2021/03/02 10:31:49;;;;;;;15.15;9.27;;;14.90;36.40;;;;;;5013106;28;20022;-75
2021/03/02 10:34:15;;;;;;;16.67;8.27;;;14.90;36.30;;;;;;5012788;28;20062;-75
2021/03/02 10:36:42;;;;;;;16.85;8.65;;;14.80;35.60;;;;;;5013473;28;20474;-74
2021/03/02 10:39:10;;;;;;;12.93;8.68;;;15.00;35.30;;;;;;5013111;28;20064;-76
2021/03/02 10:41:36;;;;;;;16.55;7.78;;;15.00;34.90;;;;;;5013245;28;20022;-73
2021/03/02 10:44:03;;;;;;;10.85;7.03;;;15.00;33.70;;;;;;5013289;28;20292;-74
2021/03/02 10:46:30;;;;;;;13.32;7.15;;;15.20;33.00;;;;;;5013405;28;20404;-75
2021/03/02 10:48:56;;;;;;;13.63;7.25;;;15.40;32.60;;;;;;5011942;28;20022;-73
2021/03/02 10:51:22;;;;;;;12.52;7.45;;;15.70;32.50;;;;;;5012191;28;20022;-73
2021/03/02 10:53:48;;;;;;;11.18;7.18;;;16.00;32.20;;;;;;5013342;28;20105;-75
2021/03/02 10:56:15;;;;;;;13.10;7.50;;;16.40;31.40;;;;;;5013167;28;20499;-74
2021/03/02 10:58:41;;;;;;;13.70;7.80;;;16.70;30.70;;;;;;5013423;28;20030;-74
2021/03/02 11:01:07;;;;;;;14.63;8.05;;;17.20;30.30;;;;;;5013129;28;20018;-74
2021/03/02 11:03:32;;;;;;;11.77;7.15;;;17.50;29.70;;;;;;5044948;28;20091;-74
2021/03/02 11:05:58;;;;;;;13.50;7.70;;;17.80;29.00;;;;;;5012104;28;20041;-74
2021/03/02 11:08:24;;;;;;;11.65;6.88;;;17.90;28.70;;;;;;5044821;28;20022;-72
2021/03/02 11:10:50;;;;;;;12.18;8.07;;;17.80;28.10;;;;;;5013601;28;20064;-73
2021/03/02 11:13:17;;;;;;;15.20;7.72;;;18.00;27.60;;;;;;5012989;28;20029;-74
2021/03/02 11:15:43;;;;;;;13.65;7.43;;;18.20;27.30;;;;;;5013191;28;20415;-73
2021/03/02 11:18:09;;;;;;;15.45;6.70;;;18.30;26.30;;;;;;5013725;28;20076;-74
2021/03/02 11:20:36;;;;;;;12.27;7.22;;;18.30;25.90;;;;;;5022591;28;20053;-73
2021/03/02 11:23:02;;;;;;;11.90;7.13;;;18.10;25.40;;;;;;5027856;28;20037;-75
2021/03/02 11:25:28;;;;;;;13.40;6.65;;;17.80;25.40;;;;;;5020703;28;20030;-73
2021/03/02 11:27:54;;;;;;;11.50;7.28;;;17.90;25.60;;;;;;5012067;28;20037;-72
2021/03/02 11:30:20;;;;;;;14.75;7.57;;;18.00;25.30;;;;;;5012853;28;20018;-73
2021/03/02 11:32:46;;;;;;;10.80;7.07;;;17.80;25.50;;;;;;5012741;28;20080;-74
2021/03/02 11:35:12;;;;;;;11.30;7.15;;;18.10;26.00;;;;;;5012656;28;20030;-73
2021/03/02 11:37:39;;;;;;;9.88;6.43;;;18.50;25.70;;;;;;5011409;28;20026;-73
2021/03/02 11:40:10;;;;;;;9.65;6.82;;;18.80;25.00;;;;;;5011519;28;20022;-74
2021/03/02 11:42:37;;;;;;;14.10;7.05;;;19.20;24.90;;;;;;5012626;28;20030;-73
2021/03/02 11:45:05;;;;;;;18.83;7.57;;;19.10;23.70;;;;;;5013496;28;20018;-73
2021/03/02 11:47:31;;;;;;;12.50;7.75;;;19.10;23.20;;;;;;5016321;28;20037;-72
2021/03/02 11:49:56;;;;;;;12.35;5.80;;;19.20;22.70;;;;;;5015106;28;20418;-74
2021/03/02 11:52:23;;;;;;;11.77;6.25;;;19.50;22.10;;;;;;5016301;28;20055;-74
2021/03/02 11:54:49;;;;;;;10.40;5.47;;;19.60;20.90;;;;;;5015391;28;20026;-74
2021/03/02 11:57:17;;;;;;;10.70;6.63;;;19.50;20.20;;;;;;5016583;28;20061;-73
2021/03/02 11:59:44;;;;;;;12.77;7.47;;;19.50;20.10;;;;;;5016561;28;20025;-73
2021/03/02 12:02:14;;;;;;;10.65;6.30;;;19.40;20.20;;;;;;5015158;28;20433;-76
2021/03/02 12:04:40;;;;;;;15.02;6.85;;;19.50;20.60;;;;;;5016346;28;20026;-74
2021/03/02 12:07:06;;;;;;;11.85;7.30;;;19.90;20.40;;;;;;5016277;28;20088;-74
2021/03/02 12:09:32;;;;;;;14.60;7.88;;;20.00;20.20;;;;;;5016251;28;20091;-71
2021/03/02 12:11:57;;;;;;;14.60;7.88;;;20.20;20.50;;;;;;5016297;28;20038;-74
2021/03/02 12:14:23;;;;;;;12.45;7.78;;;20.40;20.70;;;;;;5016117;28;20033;-73
2021/03/02 12:16:49;;;;;;;14.18;7.38;;;20.50;20.60;;;;;;5016187;28;20101;-73
2021/03/02 12:19:14;;;;;;;13.15;7.60;;;20.70;20.60;;;;;;5048045;28;20033;-76
2021/03/02 12:21:40;;;;;;;11.40;7.88;;;20.70;20.10;;;;;;5015913;28;20026;-75
2021/03/02 12:24:06;;;;;;;13.25;7.55;;;20.80;20.00;;;;;;5015762;28;20101;-72
2021/03/02 12:26:32;;;;;;;10.73;7.20;;;20.80;19.80;;;;;;5015878;28;20037;-72
2021/03/02 12:28:58;;;;;;;13.25;7.82;;;21.10;19.90;;;;;;5014560;28;20034;-73
2021/03/02 12:31:24;;;;;;;17.30;9.23;;;21.40;20.00;;;;;;5015580;28;20096;-73
2021/03/02 12:33:49;;;;;;;11.25;8.18;;;21.70;20.10;;;;;;5015720;28;20026;-72
2021/03/02 12:36:15;;;;;;;13.50;8.60;;;21.90;20.20;;;;;;5047378;28;20021;-72
2021/03/02 12:38:40;;;;;;;13.43;8.88;;;22.30;20.20;;;;;;5015408;28;20058;-75
2021/03/02 12:41:06;;;;;;;16.05;8.75;;;22.60;20.00;;;;;;5015748;28;20060;-75
2021/03/02 12:43:31;;;;;;;13.18;8.82;;;22.50;19.70;;;;;;5015265;28;20034;-74
2021/03/02 12:45:57;;;;;;;12.13;9.10;;;22.50;19.30;;;;;;5046886;28;20045;-75
2021/03/02 12:48:23;;;;;;;14.85;9.27;;;22.50;19.10;;;;;;5015221;28;20072;-75